Terminal Aerodrome Forecast
Issued by NWS

Home | Current Version | Previous Version | Text Only | Print | Product List | Glossary On
Versions: 1 2 3 4 5 6 7 8 9 10 11 12 13 14 15
000
FTUS44 KCRP 161728
TAFLRD
TAF
KLRD 161728Z 1618/1718 16015G20KT P6SM FEW040
     FM162200 14016G26KT P6SM FEW250
     FM170900 16011KT P6SM FEW025
     FM171500 17015G22KT P6SM FEW030=

USA.gov is the U.S. government's official web portal to all federal, state and local government web resources and services.